sensor_id;sensor_type;location;lat;lon;timestamp;temperature;humidity
49441;DHT22;35317;51.978;6.296;2023-08-20T00:00:52;17.70;99.90
49441;DHT22;35317;51.978;6.296;2023-08-20T00:05:53;17.70;99.90
49441;DHT22;35317;51.978;6.296;2023-08-20T00:10:54;17.60;99.90
49441;DHT22;35317;51.978;6.296;2023-08-20T00:15:55;17.60;99.90
49441;DHT22;35317;51.978;6.296;2023-08-20T00:20:56;17.60;99.90
49441;DHT22;35317;51.978;6.296;2023-08-20T00:25:57;17.60;99.90
49441;DHT22;35317;51.978;6.296;2023-08-20T00:30:58;17.50;99.90
49441;DHT22;35317;51.978;6.296;2023-08-20T00:35:59;17.50;99.90
49441;DHT22;35317;51.978;6.296;2023-08-20T00:41:00;17.40;99.90
49441;DHT22;35317;51.978;6.296;2023-08-20T00:46:00;17.40;99.90
49441;DHT22;35317;51.978;6.296;2023-08-20T00:51:01;17.40;99.90
49441;DHT22;35317;51.978;6.296;2023-08-20T00:56:03;17.40;99.90
49441;DHT22;35317;51.978;6.296;2023-08-20T01:01:03;17.40;99.90
49441;DHT22;35317;51.978;6.296;2023-08-20T01:06:15;17.50;99.90
49441;DHT22;35317;51.978;6.296;2023-08-20T01:11:26;17.60;99.90
49441;DHT22;35317;51.978;6.296;2023-08-20T01:16:29;17.70;99.90
49441;DHT22;35317;51.978;6.296;2023-08-20T01:21:38;17.60;99.90
49441;DHT22;35317;51.978;6.296;2023-08-20T01:26:53;17.60;99.90
49441;DHT22;35317;51.978;6.296;2023-08-20T01:32:02;17.60;99.90
49441;DHT22;35317;51.978;6.296;2023-08-20T01:37:04;17.60;99.90
49441;DHT22;35317;51.978;6.296;2023-08-20T01:42:05;17.60;99.90
49441;DHT22;35317;51.978;6.296;2023-08-20T01:47:06;17.50;99.90
49441;DHT22;35317;51.978;6.296;2023-08-20T01:52:07;17.50;99.90
49441;DHT22;35317;51.978;6.296;2023-08-20T01:57:08;17.50;99.90
49441;DHT22;35317;51.978;6.296;2023-08-20T02:02:09;17.60;99.90
49441;DHT22;35317;51.978;6.296;2023-08-20T02:07:09;17.60;99.90
49441;DHT22;35317;51.978;6.296;2023-08-20T02:12:10;17.60;99.90
49441;DHT22;35317;51.978;6.296;2023-08-20T02:17:11;17.60;99.90
49441;DHT22;35317;51.978;6.296;2023-08-20T02:22:12;17.70;99.90
49441;DHT22;35317;51.978;6.296;2023-08-20T02:27:13;17.80;99.90
49441;DHT22;35317;51.978;6.296;2023-08-20T02:32:14;18.00;99.90
49441;DHT22;35317;51.978;6.296;2023-08-20T02:37:15;18.00;99.90
49441;DHT22;35317;51.978;6.296;2023-08-20T02:42:15;18.00;99.90
49441;DHT22;35317;51.978;6.296;2023-08-20T02:47:16;18.00;99.90
49441;DHT22;35317;51.978;6.296;2023-08-20T02:52:17;18.00;99.90
49441;DHT22;35317;51.978;6.296;2023-08-20T02:57:18;18.00;99.90
49441;DHT22;35317;51.978;6.296;2023-08-20T03:02:18;18.00;99.90
49441;DHT22;35317;51.978;6.296;2023-08-20T03:07:19;18.00;99.90
49441;DHT22;35317;51.978;6.296;2023-08-20T03:12:20;18.00;99.90
49441;DHT22;35317;51.978;6.296;2023-08-20T03:17:21;17.90;99.90
49441;DHT22;35317;51.978;6.296;2023-08-20T03:22:22;17.90;99.90
49441;DHT22;35317;51.978;6.296;2023-08-20T03:27:24;17.80;99.90
49441;DHT22;35317;51.978;6.296;2023-08-20T03:32:24;17.80;99.90
49441;DHT22;35317;51.978;6.296;2023-08-20T03:37:26;17.70;99.90
49441;DHT22;35317;51.978;6.296;2023-08-20T03:42:27;17.70;99.90
49441;DHT22;35317;51.978;6.296;2023-08-20T03:47:27;17.60;99.90
49441;DHT22;35317;51.978;6.296;2023-08-20T03:52:28;17.50;99.90
49441;DHT22;35317;51.978;6.296;2023-08-20T03:57:29;17.50;99.90
49441;DHT22;35317;51.978;6.296;2023-08-20T04:02:30;17.40;99.90
49441;DHT22;35317;51.978;6.296;2023-08-20T04:07:30;17.40;99.90
49441;DHT22;35317;51.978;6.296;2023-08-20T04:12:31;17.30;99.90
49441;DHT22;35317;51.978;6.296;2023-08-20T04:17:32;17.30;99.90
49441;DHT22;35317;51.978;6.296;2023-08-20T04:22:33;17.20;99.90
49441;DHT22;35317;51.978;6.296;2023-08-20T04:27:34;17.20;99.90
49441;DHT22;35317;51.978;6.296;2023-08-20T04:32:35;17.10;99.90
49441;DHT22;35317;51.978;6.296;2023-08-20T04:37:35;17.10;99.90
49441;DHT22;35317;51.978;6.296;2023-08-20T04:42:36;17.10;99.90
49441;DHT22;35317;51.978;6.296;2023-08-20T04:47:38;17.10;99.90
49441;DHT22;35317;51.978;6.296;2023-08-20T04:52:39;17.10;99.90
49441;DHT22;35317;51.978;6.296;2023-08-20T04:57:40;17.10;99.90
49441;DHT22;35317;51.978;6.296;2023-08-20T05:02:41;17.10;99.90
49441;DHT22;35317;51.978;6.296;2023-08-20T05:07:42;17.10;99.90
49441;DHT22;35317;51.978;6.296;2023-08-20T05:12:42;17.10;99.90
49441;DHT22;35317;51.978;6.296;2023-08-20T05:17:43;17.20;99.90
49441;DHT22;35317;51.978;6.296;2023-08-20T05:22:44;17.20;99.90
49441;DHT22;35317;51.978;6.296;2023-08-20T05:27:45;17.20;99.90
49441;DHT22;35317;51.978;6.296;2023-08-20T05:32:46;17.20;99.90
49441;DHT22;35317;51.978;6.296;2023-08-20T05:37:46;17.30;99.90
49441;DHT22;35317;51.978;6.296;2023-08-20T05:42:47;17.30;99.90
49441;DHT22;35317;51.978;6.296;2023-08-20T05:47:48;17.40;99.90
49441;DHT22;35317;51.978;6.296;2023-08-20T05:52:49;17.40;99.90
49441;DHT22;35317;51.978;6.296;2023-08-20T05:57:50;17.50;99.90
49441;DHT22;35317;51.978;6.296;2023-08-20T06:02:50;17.60;99.90
49441;DHT22;35317;51.978;6.296;2023-08-20T06:07:51;17.80;99.90
49441;DHT22;35317;51.978;6.296;2023-08-20T06:12:52;17.90;99.90
49441;DHT22;35317;51.978;6.296;2023-08-20T06:17:53;18.10;99.90
49441;DHT22;35317;51.978;6.296;2023-08-20T06:22:54;18.20;99.90
49441;DHT22;35317;51.978;6.296;2023-08-20T06:27:55;18.40;99.90
49441;DHT22;35317;51.978;6.296;2023-08-20T06:32:56;18.60;99.90
49441;DHT22;35317;51.978;6.296;2023-08-20T06:37:56;18.80;99.90
49441;DHT22;35317;51.978;6.296;2023-08-20T06:42:57;18.90;99.90
49441;DHT22;35317;51.978;6.296;2023-08-20T06:47:58;19.10;99.90
49441;DHT22;35317;51.978;6.296;2023-08-20T06:52:59;19.30;99.90
49441;DHT22;35317;51.978;6.296;2023-08-20T06:57:59;19.40;99.90
49441;DHT22;35317;51.978;6.296;2023-08-20T07:03:00;19.60;99.90
49441;DHT22;35317;51.978;6.296;2023-08-20T07:08:01;19.70;99.90
49441;DHT22;35317;51.978;6.296;2023-08-20T07:13:01;19.80;99.90
49441;DHT22;35317;51.978;6.296;2023-08-20T07:18:02;19.90;99.90
49441;DHT22;35317;51.978;6.296;2023-08-20T07:23:03;20.10;99.90
49441;DHT22;35317;51.978;6.296;2023-08-20T07:28:05;20.20;99.90
49441;DHT22;35317;51.978;6.296;2023-08-20T07:33:06;20.30;99.90
49441;DHT22;35317;51.978;6.296;2023-08-20T07:38:07;20.40;99.90
49441;DHT22;35317;51.978;6.296;2023-08-20T07:43:08;20.50;99.90
49441;DHT22;35317;51.978;6.296;2023-08-20T07:48:09;20.60;99.90
49441;DHT22;35317;51.978;6.296;2023-08-20T07:53:09;20.70;99.90
49441;DHT22;35317;51.978;6.296;2023-08-20T07:58:10;20.80;99.90
49441;DHT22;35317;51.978;6.296;2023-08-20T08:03:11;21.00;99.90
49441;DHT22;35317;51.978;6.296;2023-08-20T08:08:18;21.10;99.90
49441;DHT22;35317;51.978;6.296;2023-08-20T08:13:21;21.20;99.50
49441;DHT22;35317;51.978;6.296;2023-08-20T08:18:22;21.40;99.20
49441;DHT22;35317;51.978;6.296;2023-08-20T08:23:23;21.40;98.80
49441;DHT22;35317;51.978;6.296;2023-08-20T08:28:24;21.50;98.40
49441;DHT22;35317;51.978;6.296;2023-08-20T08:33:25;21.70;98.00
49441;DHT22;35317;51.978;6.296;2023-08-20T08:38:26;21.80;97.40
49441;DHT22;35317;51.978;6.296;2023-08-20T08:43:28;21.90;96.90
49441;DHT22;35317;51.978;6.296;2023-08-20T08:48:29;22.10;96.40
49441;DHT22;35317;51.978;6.296;2023-08-20T08:53:30;22.30;96.10
49441;DHT22;35317;51.978;6.296;2023-08-20T08:58:33;22.40;95.70
49441;DHT22;35317;51.978;6.296;2023-08-20T09:03:34;22.50;95.30
49441;DHT22;35317;51.978;6.296;2023-08-20T09:08:35;22.70;94.80
49441;DHT22;35317;51.978;6.296;2023-08-20T09:13:40;22.90;94.40
49441;DHT22;35317;51.978;6.296;2023-08-20T09:18:45;23.00;94.00
49441;DHT22;35317;51.978;6.296;2023-08-20T09:23:47;23.10;93.80
49441;DHT22;35317;51.978;6.296;2023-08-20T09:28:48;23.30;93.60
49441;DHT22;35317;51.978;6.296;2023-08-20T09:33:53;23.50;93.10
49441;DHT22;35317;51.978;6.296;2023-08-20T09:38:54;23.40;92.30
49441;DHT22;35317;51.978;6.296;2023-08-20T09:43:58;23.40;92.20
49441;DHT22;35317;51.978;6.296;2023-08-20T09:49:00;23.50;92.10
49441;DHT22;35317;51.978;6.296;2023-08-20T09:59:47;23.70;90.60
49441;DHT22;35317;51.978;6.296;2023-08-20T10:04:49;23.90;90.90
49441;DHT22;35317;51.978;6.296;2023-08-20T10:09:50;24.00;88.80
49441;DHT22;35317;51.978;6.296;2023-08-20T10:14:52;24.10;87.70
49441;DHT22;35317;51.978;6.296;2023-08-20T10:19:53;24.30;88.50
49441;DHT22;35317;51.978;6.296;2023-08-20T10:24:54;24.50;87.70
49441;DHT22;35317;51.978;6.296;2023-08-20T10:29:59;24.70;85.30
49441;DHT22;35317;51.978;6.296;2023-08-20T10:35:00;24.90;83.70
49441;DHT22;35317;51.978;6.296;2023-08-20T10:40:01;25.10;83.00
49441;DHT22;35317;51.978;6.296;2023-08-20T10:45:05;25.20;79.70
49441;DHT22;35317;51.978;6.296;2023-08-20T10:50:09;25.50;78.30
49441;DHT22;35317;51.978;6.296;2023-08-20T10:55:13;25.60;75.10
49441;DHT22;35317;51.978;6.296;2023-08-20T11:00:15;25.80;74.90
49441;DHT22;35317;51.978;6.296;2023-08-20T11:05:20;25.90;71.80
49441;DHT22;35317;51.978;6.296;2023-08-20T11:10:21;26.00;70.00
49441;DHT22;35317;51.978;6.296;2023-08-20T11:15:23;26.20;67.50
49441;DHT22;35317;51.978;6.296;2023-08-20T11:20:23;26.20;67.30
49441;DHT22;35317;51.978;6.296;2023-08-20T11:25:24;26.50;66.80
49441;DHT22;35317;51.978;6.296;2023-08-20T11:30:29;26.60;65.60
49441;DHT22;35317;51.978;6.296;2023-08-20T11:35:30;26.80;65.20
49441;DHT22;35317;51.978;6.296;2023-08-20T11:40:31;27.10;65.00
49441;DHT22;35317;51.978;6.296;2023-08-20T11:45:32;27.30;64.40
49441;DHT22;35317;51.978;6.296;2023-08-20T11:50:35;27.50;62.80
49441;DHT22;35317;51.978;6.296;2023-08-20T11:55:39;27.60;60.60
49441;DHT22;35317;51.978;6.296;2023-08-20T12:00:41;27.70;61.20
49441;DHT22;35317;51.978;6.296;2023-08-20T12:05:42;27.80;60.80
49441;DHT22;35317;51.978;6.296;2023-08-20T12:10:43;28.00;59.90
49441;DHT22;35317;51.978;6.296;2023-08-20T12:15:44;28.20;59.40
49441;DHT22;35317;51.978;6.296;2023-08-20T12:20:45;28.20;58.50
49441;DHT22;35317;51.978;6.296;2023-08-20T12:25:50;28.50;59.40
49441;DHT22;35317;51.978;6.296;2023-08-20T12:30:51;28.90;59.00
49441;DHT22;35317;51.978;6.296;2023-08-20T12:35:56;29.20;58.00
49441;DHT22;35317;51.978;6.296;2023-08-20T12:40:56;29.30;57.10
49441;DHT22;35317;51.978;6.296;2023-08-20T12:45:57;29.50;56.90
49441;DHT22;35317;51.978;6.296;2023-08-20T12:50:58;29.70;56.20
49441;DHT22;35317;51.978;6.296;2023-08-20T12:55:58;29.90;55.30
49441;DHT22;35317;51.978;6.296;2023-08-20T13:00:59;30.00;54.60
49441;DHT22;35317;51.978;6.296;2023-08-20T13:06:00;30.00;53.80
49441;DHT22;35317;51.978;6.296;2023-08-20T13:11:03;30.00;53.60
49441;DHT22;35317;51.978;6.296;2023-08-20T13:16:04;30.10;54.00
49441;DHT22;35317;51.978;6.296;2023-08-20T13:21:05;30.30;53.10
49441;DHT22;35317;51.978;6.296;2023-08-20T13:26:06;30.20;52.40
49441;DHT22;35317;51.978;6.296;2023-08-20T13:31:07;30.10;52.90
49441;DHT22;35317;51.978;6.296;2023-08-20T13:36:07;30.10;53.20
49441;DHT22;35317;51.978;6.296;2023-08-20T13:41:08;30.20;52.80
49441;DHT22;35317;51.978;6.296;2023-08-20T13:46:09;30.30;52.80
49441;DHT22;35317;51.978;6.296;2023-08-20T13:51:10;30.40;52.40
49441;DHT22;35317;51.978;6.296;2023-08-20T13:56:11;30.40;52.50
49441;DHT22;35317;51.978;6.296;2023-08-20T14:01:12;30.50;52.10
49441;DHT22;35317;51.978;6.296;2023-08-20T14:06:13;30.60;52.10
49441;DHT22;35317;51.978;6.296;2023-08-20T14:11:14;30.70;51.50
49441;DHT22;35317;51.978;6.296;2023-08-20T14:16:15;30.90;51.20
49441;DHT22;35317;51.978;6.296;2023-08-20T14:21:16;31.00;51.40
49441;DHT22;35317;51.978;6.296;2023-08-20T14:26:18;31.00;51.30
49441;DHT22;35317;51.978;6.296;2023-08-20T14:31:19;31.00;51.70
49441;DHT22;35317;51.978;6.296;2023-08-20T14:36:19;31.00;51.40
49441;DHT22;35317;51.978;6.296;2023-08-20T14:41:20;31.00;51.30
49441;DHT22;35317;51.978;6.296;2023-08-20T14:46:21;31.00;52.00
49441;DHT22;35317;51.978;6.296;2023-08-20T14:51:22;31.20;51.90
49441;DHT22;35317;51.978;6.296;2023-08-20T14:56:23;31.30;51.20
49441;DHT22;35317;51.978;6.296;2023-08-20T15:01:24;31.40;50.40
49441;DHT22;35317;51.978;6.296;2023-08-20T15:06:24;31.40;50.10
49441;DHT22;35317;51.978;6.296;2023-08-20T15:11:27;31.40;50.10
49441;DHT22;35317;51.978;6.296;2023-08-20T15:16:28;31.30;50.50
49441;DHT22;35317;51.978;6.296;2023-08-20T15:21:29;31.30;50.10
49441;DHT22;35317;51.978;6.296;2023-08-20T15:26:30;31.40;50.10
49441;DHT22;35317;51.978;6.296;2023-08-20T15:31:31;31.50;49.90
49441;DHT22;35317;51.978;6.296;2023-08-20T15:36:32;31.50;49.40
49441;DHT22;35317;51.978;6.296;2023-08-20T15:41:33;31.50;49.50
49441;DHT22;35317;51.978;6.296;2023-08-20T15:46:33;31.10;49.40
49441;DHT22;35317;51.978;6.296;2023-08-20T15:51:35;30.80;49.70
49441;DHT22;35317;51.978;6.296;2023-08-20T15:56:39;30.50;49.80
49441;DHT22;35317;51.978;6.296;2023-08-20T16:01:40;30.20;50.60
49441;DHT22;35317;51.978;6.296;2023-08-20T16:06:41;30.10;50.80
49441;DHT22;35317;51.978;6.296;2023-08-20T16:11:42;30.20;51.00
49441;DHT22;35317;51.978;6.296;2023-08-20T16:16:43;30.20;51.20
49441;DHT22;35317;51.978;6.296;2023-08-20T16:21:44;30.10;51.00
49441;DHT22;35317;51.978;6.296;2023-08-20T16:26:45;30.00;51.20
49441;DHT22;35317;51.978;6.296;2023-08-20T16:31:45;29.90;51.70
49441;DHT22;35317;51.978;6.296;2023-08-20T16:36:46;29.60;52.00
49441;DHT22;35317;51.978;6.296;2023-08-20T16:41:47;29.50;52.70
49441;DHT22;35317;51.978;6.296;2023-08-20T16:46:48;29.20;53.00
49441;DHT22;35317;51.978;6.296;2023-08-20T16:51:49;29.00;54.00
49441;DHT22;35317;51.978;6.296;2023-08-20T16:56:49;28.80;53.80
49441;DHT22;35317;51.978;6.296;2023-08-20T17:01:50;28.50;54.30
49441;DHT22;35317;51.978;6.296;2023-08-20T17:06:52;28.30;55.80
49441;DHT22;35317;51.978;6.296;2023-08-20T17:11:53;28.10;56.70
49441;DHT22;35317;51.978;6.296;2023-08-20T17:16:54;27.90;57.80
49441;DHT22;35317;51.978;6.296;2023-08-20T17:21:54;27.70;58.40
49441;DHT22;35317;51.978;6.296;2023-08-20T17:26:55;27.50;59.00
49441;DHT22;35317;51.978;6.296;2023-08-20T17:31:56;27.30;59.60
49441;DHT22;35317;51.978;6.296;2023-08-20T17:36:57;27.10;60.20
49441;DHT22;35317;51.978;6.296;2023-08-20T17:41:58;26.90;61.10
49441;DHT22;35317;51.978;6.296;2023-08-20T17:46:58;26.70;62.70
49441;DHT22;35317;51.978;6.296;2023-08-20T17:51:59;26.50;63.60
49441;DHT22;35317;51.978;6.296;2023-08-20T17:57:00;26.30;64.30
49441;DHT22;35317;51.978;6.296;2023-08-20T18:02:01;26.10;64.90
49441;DHT22;35317;51.978;6.296;2023-08-20T18:07:01;25.90;65.40
49441;DHT22;35317;51.978;6.296;2023-08-20T18:12:04;25.70;65.80
49441;DHT22;35317;51.978;6.296;2023-08-20T18:17:05;25.50;66.80
49441;DHT22;35317;51.978;6.296;2023-08-20T18:22:06;25.30;68.00
49441;DHT22;35317;51.978;6.296;2023-08-20T18:27:06;25.10;68.90
49441;DHT22;35317;51.978;6.296;2023-08-20T18:32:07;24.80;70.00
49441;DHT22;35317;51.978;6.296;2023-08-20T18:37:08;24.50;71.30
49441;DHT22;35317;51.978;6.296;2023-08-20T18:42:09;24.20;72.40
49441;DHT22;35317;51.978;6.296;2023-08-20T18:47:09;23.90;73.90
49441;DHT22;35317;51.978;6.296;2023-08-20T18:52:10;23.60;75.00
49441;DHT22;35317;51.978;6.296;2023-08-20T18:57:11;23.40;76.80
49441;DHT22;35317;51.978;6.296;2023-08-20T19:02:13;23.10;78.30
49441;DHT22;35317;51.978;6.296;2023-08-20T19:07:14;22.90;79.90
49441;DHT22;35317;51.978;6.296;2023-08-20T19:12:15;22.70;81.00
49441;DHT22;35317;51.978;6.296;2023-08-20T19:17:16;22.60;81.40
49441;DHT22;35317;51.978;6.296;2023-08-20T19:22:16;22.40;81.80
49441;DHT22;35317;51.978;6.296;2023-08-20T19:27:17;22.30;82.20
49441;DHT22;35317;51.978;6.296;2023-08-20T19:32:18;22.20;83.00
49441;DHT22;35317;51.978;6.296;2023-08-20T19:37:19;22.00;83.70
49441;DHT22;35317;51.978;6.296;2023-08-20T19:42:20;21.90;84.90
49441;DHT22;35317;51.978;6.296;2023-08-20T19:47:20;21.80;85.10
49441;DHT22;35317;51.978;6.296;2023-08-20T19:52:21;21.60;85.60
49441;DHT22;35317;51.978;6.296;2023-08-20T19:57:22;21.60;86.20
49441;DHT22;35317;51.978;6.296;2023-08-20T20:02:23;21.50;86.90
49441;DHT22;35317;51.978;6.296;2023-08-20T20:07:25;21.40;87.00
49441;DHT22;35317;51.978;6.296;2023-08-20T20:12:26;21.30;87.40
49441;DHT22;35317;51.978;6.296;2023-08-20T20:17:26;21.20;87.50
49441;DHT22;35317;51.978;6.296;2023-08-20T20:22:27;21.10;87.50
49441;DHT22;35317;51.978;6.296;2023-08-20T20:27:29;21.00;87.90
49441;DHT22;35317;51.978;6.296;2023-08-20T20:32:35;20.90;88.20
49441;DHT22;35317;51.978;6.296;2023-08-20T20:37:36;20.80;88.60
49441;DHT22;35317;51.978;6.296;2023-08-20T20:42:37;20.70;88.80
49441;DHT22;35317;51.978;6.296;2023-08-20T20:47:38;20.60;89.60
49441;DHT22;35317;51.978;6.296;2023-08-20T20:52:39;20.50;89.50
49441;DHT22;35317;51.978;6.296;2023-08-20T20:57:40;20.40;89.80
49441;DHT22;35317;51.978;6.296;2023-08-20T21:02:41;20.20;90.10
49441;DHT22;35317;51.978;6.296;2023-08-20T21:07:43;20.20;90.30
49441;DHT22;35317;51.978;6.296;2023-08-20T21:12:45;20.10;90.50
49441;DHT22;35317;51.978;6.296;2023-08-20T21:17:46;20.00;90.60
49441;DHT22;35317;51.978;6.296;2023-08-20T21:22:47;19.90;90.90
49441;DHT22;35317;51.978;6.296;2023-08-20T21:28:10;19.80;91.10
49441;DHT22;35317;51.978;6.296;2023-08-20T21:33:12;19.70;91.20
49441;DHT22;35317;51.978;6.296;2023-08-20T21:38:12;19.60;91.40
49441;DHT22;35317;51.978;6.296;2023-08-20T21:43:14;19.60;91.60
49441;DHT22;35317;51.978;6.296;2023-08-20T21:48:14;19.50;91.80
49441;DHT22;35317;51.978;6.296;2023-08-20T21:53:16;19.50;91.90
49441;DHT22;35317;51.978;6.296;2023-08-20T21:58:23;19.40;92.10
49441;DHT22;35317;51.978;6.296;2023-08-20T22:03:24;19.30;92.30
49441;DHT22;35317;51.978;6.296;2023-08-20T22:08:26;19.20;92.50
49441;DHT22;35317;51.978;6.296;2023-08-20T22:13:29;19.10;92.70
49441;DHT22;35317;51.978;6.296;2023-08-20T22:18:30;19.00;92.90
49441;DHT22;35317;51.978;6.296;2023-08-20T22:23:30;19.00;93.10
49441;DHT22;35317;51.978;6.296;2023-08-20T22:28:31;18.90;93.30
49441;DHT22;35317;51.978;6.296;2023-08-20T22:33:32;18.90;93.40
49441;DHT22;35317;51.978;6.296;2023-08-20T22:38:33;18.80;93.60
49441;DHT22;35317;51.978;6.296;2023-08-20T22:43:34;18.80;93.70
49441;DHT22;35317;51.978;6.296;2023-08-20T22:48:37;18.70;93.90
49441;DHT22;35317;51.978;6.296;2023-08-20T22:53:37;18.80;94.10
49441;DHT22;35317;51.978;6.296;2023-08-20T22:58:38;18.70;94.20
49441;DHT22;35317;51.978;6.296;2023-08-20T23:03:39;18.70;94.40
49441;DHT22;35317;51.978;6.296;2023-08-20T23:08:40;18.70;94.50
49441;DHT22;35317;51.978;6.296;2023-08-20T23:13:40;18.70;94.70
49441;DHT22;35317;51.978;6.296;2023-08-20T23:18:41;18.70;94.70
49441;DHT22;35317;51.978;6.296;2023-08-20T23:23:42;18.70;94.80
49441;DHT22;35317;51.978;6.296;2023-08-20T23:28:43;18.80;94.90
49441;DHT22;35317;51.978;6.296;2023-08-20T23:33:44;18.80;95.00
49441;DHT22;35317;51.978;6.296;2023-08-20T23:38:45;18.90;95.10
49441;DHT22;35317;51.978;6.296;2023-08-20T23:43:46;19.00;95.20
49441;DHT22;35317;51.978;6.296;2023-08-20T23:48:46;19.00;95.20
49441;DHT22;35317;51.978;6.296;2023-08-20T23:53:47;19.00;95.20
49441;DHT22;35317;51.978;6.296;2023-08-20T23:58:48;19.00;95.30
